createdAt,value
2022-08-23T00:00:52.376Z,3.15
2022-08-23T00:06:18.306Z,3.95
2022-08-23T00:11:43.784Z,3.17
2022-08-23T00:17:09.115Z,3.55
2022-08-23T00:22:33.477Z,3.28
2022-08-23T00:27:56.710Z,3.42
2022-08-23T00:33:21.779Z,4.25
2022-08-23T00:38:46.423Z,3.60
2022-08-23T00:44:32.586Z,4.68
2022-08-23T00:49:59.425Z,2.95
2022-08-23T00:55:24.706Z,4.10
2022-08-23T01:00:48.612Z,3.20
2022-08-23T01:06:15.779Z,3.78
2022-08-23T01:11:46.419Z,3.90
2022-08-23T01:17:11.680Z,3.90
2022-08-23T01:22:41.732Z,3.38
2022-08-23T01:28:06.501Z,4.10
2022-08-23T01:33:29.820Z,3.60
2022-08-23T01:38:53.098Z,3.60
2022-08-23T01:44:17.624Z,3.63
2022-08-23T01:49:40.773Z,3.50
2022-08-23T01:55:04.623Z,4.00
2022-08-23T02:00:32.874Z,3.70
2022-08-23T02:05:56.419Z,4.32
2022-08-23T02:11:22.606Z,3.72
2022-08-23T02:17:03.256Z,4.32
2022-08-23T02:22:28.528Z,4.05
2022-08-23T02:27:51.615Z,4.45
2022-08-23T02:33:16.578Z,4.20
2022-08-23T02:38:40.375Z,4.70
2022-08-23T02:44:04.095Z,5.18
2022-08-23T02:49:28.678Z,4.55
2022-08-23T02:54:53.286Z,4.00
2022-08-23T03:00:21.916Z,5.35
2022-08-23T03:05:48.527Z,5.10
2022-08-23T03:11:15.448Z,4.85
2022-08-23T03:16:41.504Z,6.57
2022-08-23T03:22:13.922Z,5.88
2022-08-23T03:27:38.290Z,6.07
2022-08-23T03:33:07.843Z,5.78
2022-08-23T03:38:33.424Z,5.55
2022-08-23T03:43:56.759Z,5.78
2022-08-23T03:49:21.383Z,6.75
2022-08-23T03:54:50.218Z,5.90
2022-08-23T04:00:20.239Z,7.75
2022-08-23T04:05:44.867Z,6.80
2022-08-23T04:11:14.541Z,5.63
2022-08-23T04:16:48.499Z,6.20
2022-08-23T04:22:13.081Z,6.78
2022-08-23T04:27:38.775Z,6.10
2022-08-23T04:33:01.994Z,6.47
2022-08-23T04:38:27.596Z,5.63
2022-08-23T04:43:56.304Z,7.25
2022-08-23T04:49:24.456Z,5.80
2022-08-23T04:54:48.539Z,6.85
2022-08-23T05:00:50.819Z,6.13
2022-08-23T05:06:17.351Z,5.82
2022-08-23T05:11:40.524Z,6.85
2022-08-23T05:17:06.036Z,5.30
2022-08-23T05:22:34.051Z,6.10
2022-08-23T05:28:30.096Z,6.32
2022-08-23T05:33:55.582Z,6.10
2022-08-23T05:39:44.754Z,6.93
2022-08-23T05:45:09.818Z,7.05
2022-08-23T05:50:37.186Z,6.10
2022-08-23T05:56:09.981Z,7.20
2022-08-23T06:01:34.065Z,5.78
2022-08-23T06:07:06.603Z,6.40
2022-08-23T06:12:29.779Z,5.30
2022-08-23T06:17:53.125Z,6.07
2022-08-23T06:23:18.498Z,5.95
2022-08-23T06:28:50.839Z,5.45
2022-08-23T06:34:19.334Z,5.45
2022-08-23T06:39:59.725Z,5.47
2022-08-23T06:45:35.466Z,6.03
2022-08-23T06:50:59.377Z,6.97
2022-08-23T06:56:36.256Z,5.65
2022-08-23T07:02:05.808Z,4.70
2022-08-23T07:07:49.564Z,5.53
2022-08-23T07:13:18.383Z,5.22
2022-08-23T07:18:41.795Z,5.15
2022-08-23T07:24:05.303Z,5.28
2022-08-23T07:29:30.915Z,6.28
2022-08-23T07:34:54.478Z,6.00
2022-08-23T07:40:20.235Z,5.45
2022-08-23T07:45:46.173Z,4.95
2022-08-23T07:51:13.298Z,4.45
2022-08-23T07:56:37.342Z,5.35
2022-08-23T08:02:11.647Z,4.25
2022-08-23T08:07:37.734Z,3.70
2022-08-23T08:13:01.153Z,3.13
2022-08-23T08:18:26.580Z,2.95
2022-08-23T08:24:19.123Z,3.28
2022-08-23T08:29:48.498Z,3.55
2022-08-23T08:35:13.500Z,4.03
2022-08-23T08:40:41.403Z,2.53
2022-08-23T08:46:08.141Z,3.00
2022-08-23T08:51:45.401Z,2.30
2022-08-23T08:57:09.571Z,2.70
2022-08-23T09:02:40.224Z,2.05
2022-08-23T09:08:30.388Z,2.10
2022-08-23T09:14:30.109Z,3.03
2022-08-23T09:19:58.388Z,3.25
2022-08-23T09:25:24.061Z,2.03
2022-08-23T09:31:01.071Z,2.05
2022-08-23T09:36:28.501Z,2.38
2022-08-23T09:41:56.921Z,2.33
2022-08-23T09:47:20.086Z,2.15
2022-08-23T09:52:48.930Z,1.70
2022-08-23T09:58:23.521Z,1.67
2022-08-23T10:03:47.556Z,1.70
2022-08-23T10:09:27.686Z,1.92
2022-08-23T10:14:52.739Z,2.03
2022-08-23T10:20:27.758Z,1.92
2022-08-23T10:25:55.714Z,2.97
2022-08-23T10:31:32.628Z,2.65
2022-08-23T10:37:14.327Z,2.53
2022-08-23T10:42:44.728Z,2.42
2022-08-23T10:48:21.241Z,2.30
2022-08-23T10:53:49.932Z,1.90
2022-08-23T10:59:15.842Z,2.28
2022-08-23T11:04:49.943Z,2.25
2022-08-23T11:10:31.273Z,2.42
2022-08-23T11:16:00.825Z,1.70
2022-08-23T11:21:50.177Z,1.98
2022-08-23T11:27:27.267Z,2.22
2022-08-23T11:32:50.732Z,1.90
2022-08-23T11:38:22.669Z,2.08
2022-08-23T11:43:47.831Z,2.50
2022-08-23T11:49:29.211Z,1.52
2022-08-23T11:55:13.139Z,1.60
2022-08-23T12:00:55.194Z,1.52
2022-08-23T12:06:40.749Z,1.80
2022-08-23T12:12:33.647Z,1.40
2022-08-23T12:18:14.618Z,1.45
2022-08-23T12:23:47.920Z,2.20
2022-08-23T12:29:21.260Z,1.45
2022-08-23T12:34:54.692Z,1.58
2022-08-23T12:40:32.812Z,1.67
2022-08-23T12:45:58.965Z,1.35
2022-08-23T12:51:22.265Z,1.40
2022-08-23T12:56:47.805Z,1.15
2022-08-23T13:02:16.205Z,1.40
2022-08-23T13:07:41.279Z,1.73
2022-08-23T13:13:04.642Z,1.00
2022-08-23T13:18:34.471Z,1.27
2022-08-23T13:24:00.740Z,1.77
2022-08-23T13:29:25.931Z,1.73
2022-08-23T13:34:53.268Z,1.52
2022-08-23T13:40:23.865Z,1.75
2022-08-23T13:45:49.605Z,1.40
2022-08-23T13:51:26.110Z,1.38
2022-08-23T13:56:51.269Z,2.53
2022-08-23T14:02:16.539Z,1.73
2022-08-23T14:07:40.996Z,1.33
2022-08-23T14:13:04.113Z,2.63
2022-08-23T14:18:27.251Z,2.00
2022-08-23T14:23:51.796Z,2.40
2022-08-23T14:29:15.319Z,2.20
2022-08-23T14:34:38.660Z,2.00
2022-08-23T14:40:03.304Z,2.13
2022-08-23T14:45:27.265Z,2.00
2022-08-23T14:50:50.793Z,2.25
2022-08-23T14:56:21.592Z,2.88
2022-08-23T15:01:45.972Z,2.10
2022-08-23T15:07:18.652Z,1.75
2022-08-23T15:13:03.134Z,2.67
2022-08-23T15:18:27.431Z,2.70
2022-08-23T15:23:51.257Z,2.75
2022-08-23T15:29:19.027Z,2.78
2022-08-23T15:34:46.389Z,2.30
2022-08-23T15:40:11.222Z,2.10
2022-08-23T15:45:36.188Z,2.60
2022-08-23T15:51:00.504Z,2.55
2022-08-23T15:56:28.596Z,3.08
2022-08-23T16:01:53.457Z,2.97
2022-08-23T16:07:18.019Z,2.55
2022-08-23T16:12:42.324Z,2.42
2022-08-23T16:18:06.957Z,2.90
2022-08-23T16:23:30.088Z,2.60
2022-08-23T16:28:55.194Z,2.85
2022-08-23T16:34:21.148Z,3.40
2022-08-23T16:39:45.115Z,3.15
2022-08-23T16:45:09.563Z,3.72
2022-08-23T16:50:34.278Z,3.17
2022-08-23T16:55:57.389Z,2.97
2022-08-23T17:01:20.696Z,2.92
2022-08-23T17:06:46.339Z,3.45
2022-08-23T17:12:10.920Z,3.17
2022-08-23T17:17:34.020Z,2.92
2022-08-23T17:22:58.621Z,2.83
2022-08-23T17:28:21.716Z,2.63
2022-08-23T17:33:46.335Z,3.15
2022-08-23T17:39:14.215Z,3.30
2022-08-23T17:44:37.521Z,3.83
2022-08-23T17:50:00.834Z,3.05
2022-08-23T17:55:25.428Z,3.05
2022-08-23T18:00:52.044Z,1.80
2022-08-23T18:06:17.415Z,2.30
2022-08-23T18:11:42.038Z,4.13
2022-08-23T18:17:05.341Z,1.63
2022-08-23T18:22:28.805Z,1.60
2022-08-23T18:28:09.744Z,1.50
2022-08-23T18:33:46.969Z,1.30
2022-08-23T18:39:11.148Z,1.10
2022-08-23T18:44:35.720Z,1.25
2022-08-23T18:49:58.816Z,1.42
2022-08-23T18:55:21.901Z,1.40
2022-08-23T19:00:46.640Z,1.42
2022-08-23T19:06:12.609Z,0.90
2022-08-23T19:11:37.299Z,1.20
2022-08-23T19:17:04.180Z,1.50
2022-08-23T19:22:27.447Z,1.27
2022-08-23T19:27:50.512Z,1.75
2022-08-23T19:33:15.107Z,1.38
2022-08-23T19:38:38.221Z,1.80
2022-08-23T19:44:02.572Z,2.15
2022-08-23T19:49:27.047Z,2.47
2022-08-23T19:54:50.289Z,2.80
2022-08-23T20:00:19.348Z,3.63
2022-08-23T20:05:44.409Z,3.20
2022-08-23T20:11:08.101Z,2.03
2022-08-23T20:16:32.675Z,3.13
2022-08-23T20:22:18.363Z,3.33
2022-08-23T20:27:41.595Z,2.80
2022-08-23T20:33:11.811Z,2.85
2022-08-23T20:38:37.557Z,2.60
2022-08-23T20:44:00.785Z,3.03
2022-08-23T20:49:24.531Z,2.67
2022-08-23T20:54:49.076Z,2.50
2022-08-23T21:00:13.234Z,2.35
2022-08-23T21:05:36.410Z,2.70
2022-08-23T21:11:01.070Z,2.38
2022-08-23T21:16:24.742Z,2.70
2022-08-23T21:21:48.101Z,2.90
2022-08-23T21:27:36.041Z,3.55
2022-08-23T21:32:59.888Z,3.05
2022-08-23T21:38:22.999Z,2.75
2022-08-23T21:43:48.568Z,2.67
2022-08-23T21:49:12.421Z,2.92
2022-08-23T21:54:38.222Z,3.10
2022-08-23T22:00:06.284Z,3.80
2022-08-23T22:05:39.894Z,3.28
2022-08-23T22:11:07.182Z,3.35
2022-08-23T22:16:31.667Z,4.63
2022-08-23T22:21:54.814Z,4.88
2022-08-23T22:27:18.581Z,4.78
2022-08-23T22:32:43.569Z,4.60
2022-08-23T22:38:14.839Z,4.90
2022-08-23T22:43:38.229Z,5.50
2022-08-23T22:49:03.111Z,4.45
2022-08-23T22:54:26.218Z,5.00
2022-08-23T22:59:49.406Z,4.85
2022-08-23T23:05:14.880Z,4.72
2022-08-23T23:10:37.987Z,4.65
2022-08-23T23:16:03.739Z,4.25
2022-08-23T23:21:28.185Z,4.00
2022-08-23T23:26:51.832Z,3.65
2022-08-23T23:32:15.722Z,4.38
2022-08-23T23:37:40.125Z,5.10
2022-08-23T23:43:03.331Z,4.43
2022-08-23T23:48:26.439Z,4.65
2022-08-23T23:53:51.418Z,4.18
2022-08-23T23:59:16.237Z,4.40
